sensor_id;sensor_type;location;lat;lon;timestamp;P1;durP1;ratioP1;P2;durP2;ratioP2
2119;SDS011;1066;52.540;13.420;2022-10-16T00:01:03;6.53;;;2.50;;
2119;SDS011;1066;52.540;13.420;2022-10-16T00:03:30;2.53;;;2.33;;
2119;SDS011;1066;52.540;13.420;2022-10-16T00:05:58;2.60;;;2.40;;
2119;SDS011;1066;52.540;13.420;2022-10-16T00:08:25;2.77;;;2.57;;
2119;SDS011;1066;52.540;13.420;2022-10-16T00:10:51;2.80;;;2.53;;
2119;SDS011;1066;52.540;13.420;2022-10-16T00:13:16;3.30;;;3.00;;
2119;SDS011;1066;52.540;13.420;2022-10-16T00:15:43;2.83;;;2.47;;
2119;SDS011;1066;52.540;13.420;2022-10-16T00:18:09;4.00;;;2.50;;
2119;SDS011;1066;52.540;13.420;2022-10-16T00:20:34;2.80;;;2.40;;
2119;SDS011;1066;52.540;13.420;2022-10-16T00:23:01;3.53;;;2.80;;
2119;SDS011;1066;52.540;13.420;2022-10-16T00:25:28;3.90;;;2.70;;
2119;SDS011;1066;52.540;13.420;2022-10-16T00:27:53;2.80;;;2.40;;
2119;SDS011;1066;52.540;13.420;2022-10-16T00:30:19;2.60;;;2.40;;
2119;SDS011;1066;52.540;13.420;2022-10-16T00:32:44;2.50;;;2.30;;
2119;SDS011;1066;52.540;13.420;2022-10-16T00:35:09;3.43;;;2.10;;
2119;SDS011;1066;52.540;13.420;2022-10-16T00:37:35;2.03;;;1.93;;
2119;SDS011;1066;52.540;13.420;2022-10-16T00:40:00;2.30;;;2.10;;
2119;SDS011;1066;52.540;13.420;2022-10-16T00:42:25;3.80;;;1.97;;
2119;SDS011;1066;52.540;13.420;2022-10-16T00:44:55;2.50;;;2.17;;
2119;SDS011;1066;52.540;13.420;2022-10-16T00:47:29;2.40;;;2.20;;
2119;SDS011;1066;52.540;13.420;2022-10-16T00:52:34;2.10;;;1.90;;
2119;SDS011;1066;52.540;13.420;2022-10-16T00:55:00;2.23;;;2.00;;
2119;SDS011;1066;52.540;13.420;2022-10-16T00:57:27;2.70;;;2.17;;
2119;SDS011;1066;52.540;13.420;2022-10-16T00:59:53;2.13;;;1.90;;
2119;SDS011;1066;52.540;13.420;2022-10-16T01:02:19;2.10;;;1.90;;
2119;SDS011;1066;52.540;13.420;2022-10-16T01:04:52;2.37;;;2.17;;
2119;SDS011;1066;52.540;13.420;2022-10-16T01:09:57;1.93;;;1.83;;
2119;SDS011;1066;52.540;13.420;2022-10-16T01:12:45;2.43;;;2.23;;
2119;SDS011;1066;52.540;13.420;2022-10-16T01:15:26;2.80;;;2.20;;
2119;SDS011;1066;52.540;13.420;2022-10-16T01:17:55;2.30;;;2.10;;
2119;SDS011;1066;52.540;13.420;2022-10-16T01:20:35;2.43;;;2.20;;
2119;SDS011;1066;52.540;13.420;2022-10-16T01:25:58;2.63;;;1.90;;
2119;SDS011;1066;52.540;13.420;2022-10-16T01:28:38;2.43;;;2.23;;
2119;SDS011;1066;52.540;13.420;2022-10-16T01:31:07;3.40;;;2.10;;
2119;SDS011;1066;52.540;13.420;2022-10-16T01:33:39;1.90;;;1.80;;
2119;SDS011;1066;52.540;13.420;2022-10-16T01:36:10;1.87;;;1.70;;
2119;SDS011;1066;52.540;13.420;2022-10-16T01:38:39;2.07;;;1.83;;
2119;SDS011;1066;52.540;13.420;2022-10-16T01:41:08;2.43;;;2.07;;
2119;SDS011;1066;52.540;13.420;2022-10-16T01:43:36;2.30;;;2.10;;
2119;SDS011;1066;52.540;13.420;2022-10-16T01:46:03;1.87;;;1.77;;
2119;SDS011;1066;52.540;13.420;2022-10-16T01:48:30;2.70;;;2.50;;
2119;SDS011;1066;52.540;13.420;2022-10-16T01:51:03;2.50;;;2.30;;
2119;SDS011;1066;52.540;13.420;2022-10-16T01:53:33;2.30;;;2.10;;
2119;SDS011;1066;52.540;13.420;2022-10-16T01:55:59;2.00;;;1.80;;
2119;SDS011;1066;52.540;13.420;2022-10-16T01:58:25;2.40;;;1.90;;
2119;SDS011;1066;52.540;13.420;2022-10-16T02:00:52;3.10;;;2.30;;
2119;SDS011;1066;52.540;13.420;2022-10-16T02:03:20;1.83;;;1.73;;
2119;SDS011;1066;52.540;13.420;2022-10-16T02:05:53;2.80;;;2.60;;
2119;SDS011;1066;52.540;13.420;2022-10-16T02:08:23;2.30;;;2.10;;
2119;SDS011;1066;52.540;13.420;2022-10-16T02:10:51;3.47;;;2.17;;
2119;SDS011;1066;52.540;13.420;2022-10-16T02:13:17;2.27;;;2.07;;
2119;SDS011;1066;52.540;13.420;2022-10-16T02:15:47;2.40;;;2.00;;
2119;SDS011;1066;52.540;13.420;2022-10-16T02:18:13;2.10;;;1.90;;
2119;SDS011;1066;52.540;13.420;2022-10-16T02:21:22;1.90;;;1.80;;
2119;SDS011;1066;52.540;13.420;2022-10-16T02:23:51;2.30;;;1.83;;
2119;SDS011;1066;52.540;13.420;2022-10-16T02:26:27;1.90;;;1.80;;
2119;SDS011;1066;52.540;13.420;2022-10-16T02:28:57;1.80;;;1.70;;
2119;SDS011;1066;52.540;13.420;2022-10-16T02:31:27;3.60;;;2.20;;
2119;SDS011;1066;52.540;13.420;2022-10-16T02:33:54;1.93;;;1.80;;
2119;SDS011;1066;52.540;13.420;2022-10-16T02:36:20;2.50;;;2.30;;
2119;SDS011;1066;52.540;13.420;2022-10-16T02:38:46;2.13;;;1.93;;
2119;SDS011;1066;52.540;13.420;2022-10-16T02:41:11;2.90;;;2.17;;
2119;SDS011;1066;52.540;13.420;2022-10-16T02:43:36;1.93;;;1.70;;
2119;SDS011;1066;52.540;13.420;2022-10-16T02:46:02;2.80;;;2.20;;
2119;SDS011;1066;52.540;13.420;2022-10-16T02:48:27;2.90;;;2.00;;
2119;SDS011;1066;52.540;13.420;2022-10-16T02:50:53;1.83;;;1.53;;
2119;SDS011;1066;52.540;13.420;2022-10-16T02:53:18;2.60;;;2.40;;
2119;SDS011;1066;52.540;13.420;2022-10-16T02:55:44;2.70;;;2.00;;
2119;SDS011;1066;52.540;13.420;2022-10-16T02:58:09;2.23;;;2.03;;
2119;SDS011;1066;52.540;13.420;2022-10-16T03:00:35;2.20;;;2.10;;
2119;SDS011;1066;52.540;13.420;2022-10-16T03:03:00;2.23;;;2.03;;
2119;SDS011;1066;52.540;13.420;2022-10-16T03:05:26;2.37;;;2.00;;
2119;SDS011;1066;52.540;13.420;2022-10-16T03:07:51;2.23;;;1.80;;
2119;SDS011;1066;52.540;13.420;2022-10-16T03:10:17;2.47;;;2.27;;
2119;SDS011;1066;52.540;13.420;2022-10-16T03:12:43;3.33;;;2.00;;
2119;SDS011;1066;52.540;13.420;2022-10-16T03:15:08;1.93;;;1.77;;
2119;SDS011;1066;52.540;13.420;2022-10-16T03:17:34;2.83;;;2.00;;
2119;SDS011;1066;52.540;13.420;2022-10-16T03:19:59;2.30;;;2.10;;
2119;SDS011;1066;52.540;13.420;2022-10-16T03:22:25;2.77;;;1.93;;
2119;SDS011;1066;52.540;13.420;2022-10-16T03:24:50;2.10;;;1.80;;
2119;SDS011;1066;52.540;13.420;2022-10-16T03:27:16;3.00;;;1.80;;
2119;SDS011;1066;52.540;13.420;2022-10-16T03:29:41;2.27;;;2.07;;
2119;SDS011;1066;52.540;13.420;2022-10-16T03:32:06;2.50;;;1.80;;
2119;SDS011;1066;52.540;13.420;2022-10-16T03:34:32;2.13;;;1.93;;
2119;SDS011;1066;52.540;13.420;2022-10-16T03:36:57;2.40;;;2.10;;
2119;SDS011;1066;52.540;13.420;2022-10-16T03:39:23;2.23;;;2.03;;
2119;SDS011;1066;52.540;13.420;2022-10-16T03:41:48;1.73;;;1.63;;
2119;SDS011;1066;52.540;13.420;2022-10-16T03:44:14;2.30;;;2.17;;
2119;SDS011;1066;52.540;13.420;2022-10-16T03:46:39;2.53;;;2.20;;
2119;SDS011;1066;52.540;13.420;2022-10-16T03:49:04;4.10;;;2.13;;
2119;SDS011;1066;52.540;13.420;2022-10-16T03:51:30;2.40;;;2.20;;
2119;SDS011;1066;52.540;13.420;2022-10-16T03:53:55;2.60;;;2.20;;
2119;SDS011;1066;52.540;13.420;2022-10-16T03:56:21;2.47;;;2.00;;
2119;SDS011;1066;52.540;13.420;2022-10-16T03:58:46;2.37;;;2.17;;
2119;SDS011;1066;52.540;13.420;2022-10-16T04:01:11;2.30;;;1.73;;
2119;SDS011;1066;52.540;13.420;2022-10-16T04:03:37;2.53;;;2.07;;
2119;SDS011;1066;52.540;13.420;2022-10-16T04:06:02;2.20;;;2.00;;
2119;SDS011;1066;52.540;13.420;2022-10-16T04:08:27;2.33;;;2.13;;
2119;SDS011;1066;52.540;13.420;2022-10-16T04:10:53;2.73;;;2.23;;
2119;SDS011;1066;52.540;13.420;2022-10-16T04:13:18;2.60;;;2.30;;
2119;SDS011;1066;52.540;13.420;2022-10-16T04:15:44;2.50;;;2.30;;
2119;SDS011;1066;52.540;13.420;2022-10-16T04:18:10;2.70;;;1.90;;
2119;SDS011;1066;52.540;13.420;2022-10-16T04:20:36;2.43;;;2.20;;
2119;SDS011;1066;52.540;13.420;2022-10-16T04:23:01;2.13;;;1.93;;
2119;SDS011;1066;52.540;13.420;2022-10-16T04:25:27;3.10;;;2.30;;
2119;SDS011;1066;52.540;13.420;2022-10-16T04:27:53;2.60;;;2.40;;
2119;SDS011;1066;52.540;13.420;2022-10-16T04:30:19;2.43;;;2.23;;
2119;SDS011;1066;52.540;13.420;2022-10-16T04:32:48;2.27;;;2.00;;
2119;SDS011;1066;52.540;13.420;2022-10-16T04:35:15;3.87;;;2.57;;
2119;SDS011;1066;52.540;13.420;2022-10-16T04:37:41;2.60;;;2.40;;
2119;SDS011;1066;52.540;13.420;2022-10-16T04:40:06;3.50;;;2.37;;
2119;SDS011;1066;52.540;13.420;2022-10-16T04:42:32;3.10;;;2.67;;
2119;SDS011;1066;52.540;13.420;2022-10-16T04:44:58;2.40;;;2.20;;
2119;SDS011;1066;52.540;13.420;2022-10-16T04:47:24;2.63;;;2.13;;
2119;SDS011;1066;52.540;13.420;2022-10-16T04:49:49;2.80;;;2.07;;
2119;SDS011;1066;52.540;13.420;2022-10-16T04:52:15;5.30;;;2.07;;
2119;SDS011;1066;52.540;13.420;2022-10-16T04:54:41;2.93;;;2.30;;
2119;SDS011;1066;52.540;13.420;2022-10-16T04:57:06;2.73;;;2.20;;
2119;SDS011;1066;52.540;13.420;2022-10-16T04:59:31;2.00;;;1.90;;
2119;SDS011;1066;52.540;13.420;2022-10-16T05:01:57;2.30;;;2.10;;
2119;SDS011;1066;52.540;13.420;2022-10-16T05:04:22;2.33;;;1.80;;
2119;SDS011;1066;52.540;13.420;2022-10-16T05:06:48;2.37;;;2.20;;
2119;SDS011;1066;52.540;13.420;2022-10-16T05:09:14;2.00;;;1.80;;
2119;SDS011;1066;52.540;13.420;2022-10-16T05:11:39;2.20;;;2.00;;
2119;SDS011;1066;52.540;13.420;2022-10-16T05:14:05;2.10;;;1.90;;
2119;SDS011;1066;52.540;13.420;2022-10-16T05:16:30;2.13;;;2.00;;
2119;SDS011;1066;52.540;13.420;2022-10-16T05:18:56;4.20;;;2.60;;
2119;SDS011;1066;52.540;13.420;2022-10-16T05:21:21;2.50;;;2.30;;
2119;SDS011;1066;52.540;13.420;2022-10-16T05:23:47;3.00;;;2.20;;
2119;SDS011;1066;52.540;13.420;2022-10-16T05:26:12;2.23;;;2.03;;
2119;SDS011;1066;52.540;13.420;2022-10-16T05:28:38;2.40;;;2.03;;
2119;SDS011;1066;52.540;13.420;2022-10-16T05:31:07;3.57;;;2.67;;
2119;SDS011;1066;52.540;13.420;2022-10-16T05:33:33;3.23;;;1.83;;
2119;SDS011;1066;52.540;13.420;2022-10-16T05:36:02;2.33;;;1.87;;
2119;SDS011;1066;52.540;13.420;2022-10-16T05:38:32;3.87;;;2.10;;
2119;SDS011;1066;52.540;13.420;2022-10-16T05:41:01;3.87;;;2.27;;
2119;SDS011;1066;52.540;13.420;2022-10-16T05:43:28;2.80;;;2.53;;
2119;SDS011;1066;52.540;13.420;2022-10-16T05:45:57;3.83;;;2.57;;
2119;SDS011;1066;52.540;13.420;2022-10-16T05:48:23;2.07;;;1.87;;
2119;SDS011;1066;52.540;13.420;2022-10-16T05:51:02;3.23;;;2.20;;
2119;SDS011;1066;52.540;13.420;2022-10-16T05:53:30;3.37;;;2.70;;
2119;SDS011;1066;52.540;13.420;2022-10-16T05:55:57;3.67;;;2.20;;
2119;SDS011;1066;52.540;13.420;2022-10-16T05:58:23;3.33;;;3.03;;
2119;SDS011;1066;52.540;13.420;2022-10-16T06:00:53;3.57;;;2.37;;
2119;SDS011;1066;52.540;13.420;2022-10-16T06:03:20;2.83;;;2.40;;
2119;SDS011;1066;52.540;13.420;2022-10-16T06:05:46;2.57;;;2.37;;
2119;SDS011;1066;52.540;13.420;2022-10-16T06:08:14;3.33;;;3.03;;
2119;SDS011;1066;52.540;13.420;2022-10-16T06:10:40;2.70;;;2.30;;
2119;SDS011;1066;52.540;13.420;2022-10-16T06:13:05;3.40;;;2.70;;
2119;SDS011;1066;52.540;13.420;2022-10-16T06:15:30;2.30;;;2.10;;
2119;SDS011;1066;52.540;13.420;2022-10-16T06:17:56;2.80;;;2.60;;
2119;SDS011;1066;52.540;13.420;2022-10-16T06:20:21;2.80;;;2.60;;
2119;SDS011;1066;52.540;13.420;2022-10-16T06:22:46;4.00;;;2.60;;
2119;SDS011;1066;52.540;13.420;2022-10-16T06:25:12;2.80;;;2.60;;
2119;SDS011;1066;52.540;13.420;2022-10-16T06:27:39;3.40;;;3.13;;
2119;SDS011;1066;52.540;13.420;2022-10-16T06:30:05;3.50;;;3.20;;
2119;SDS011;1066;52.540;13.420;2022-10-16T06:32:31;3.13;;;2.83;;
2119;SDS011;1066;52.540;13.420;2022-10-16T06:34:57;3.03;;;2.53;;
2119;SDS011;1066;52.540;13.420;2022-10-16T06:37:22;3.10;;;2.80;;
2119;SDS011;1066;52.540;13.420;2022-10-16T06:39:48;2.40;;;2.20;;
2119;SDS011;1066;52.540;13.420;2022-10-16T06:42:13;3.63;;;2.87;;
2119;SDS011;1066;52.540;13.420;2022-10-16T06:44:38;3.17;;;2.87;;
2119;SDS011;1066;52.540;13.420;2022-10-16T06:47:04;2.80;;;2.60;;
2119;SDS011;1066;52.540;13.420;2022-10-16T06:49:29;4.80;;;2.80;;
2119;SDS011;1066;52.540;13.420;2022-10-16T06:51:54;2.43;;;2.23;;
2119;SDS011;1066;52.540;13.420;2022-10-16T06:54:20;4.27;;;2.80;;
2119;SDS011;1066;52.540;13.420;2022-10-16T06:56:45;3.20;;;2.70;;
2119;SDS011;1066;52.540;13.420;2022-10-16T06:59:11;2.83;;;2.60;;
2119;SDS011;1066;52.540;13.420;2022-10-16T07:01:36;2.97;;;2.40;;
2119;SDS011;1066;52.540;13.420;2022-10-16T07:04:02;3.57;;;2.67;;
2119;SDS011;1066;52.540;13.420;2022-10-16T07:06:30;3.20;;;2.57;;
2119;SDS011;1066;52.540;13.420;2022-10-16T07:08:56;3.37;;;3.07;;
2119;SDS011;1066;52.540;13.420;2022-10-16T07:11:23;2.50;;;2.30;;
2119;SDS011;1066;52.540;13.420;2022-10-16T07:13:49;2.37;;;2.17;;
2119;SDS011;1066;52.540;13.420;2022-10-16T07:16:20;2.63;;;2.40;;
2119;SDS011;1066;52.540;13.420;2022-10-16T07:18:46;2.77;;;2.53;;
2119;SDS011;1066;52.540;13.420;2022-10-16T07:21:17;2.80;;;2.60;;
2119;SDS011;1066;52.540;13.420;2022-10-16T07:23:45;2.60;;;2.00;;
2119;SDS011;1066;52.540;13.420;2022-10-16T07:26:15;2.80;;;2.07;;
2119;SDS011;1066;52.540;13.420;2022-10-16T07:28:40;4.23;;;2.47;;
2119;SDS011;1066;52.540;13.420;2022-10-16T07:31:09;2.40;;;2.20;;
2119;SDS011;1066;52.540;13.420;2022-10-16T07:33:36;2.03;;;1.83;;
2119;SDS011;1066;52.540;13.420;2022-10-16T07:36:03;2.67;;;2.07;;
2119;SDS011;1066;52.540;13.420;2022-10-16T07:38:29;2.30;;;2.10;;
2119;SDS011;1066;52.540;13.420;2022-10-16T07:41:03;2.20;;;2.00;;
2119;SDS011;1066;52.540;13.420;2022-10-16T07:43:31;2.30;;;2.10;;
2119;SDS011;1066;52.540;13.420;2022-10-16T07:45:57;2.70;;;2.50;;
2119;SDS011;1066;52.540;13.420;2022-10-16T07:48:22;2.70;;;2.40;;
2119;SDS011;1066;52.540;13.420;2022-10-16T07:50:48;2.00;;;1.90;;
2119;SDS011;1066;52.540;13.420;2022-10-16T07:53:13;1.90;;;1.80;;
2119;SDS011;1066;52.540;13.420;2022-10-16T07:55:39;2.20;;;2.00;;
2119;SDS011;1066;52.540;13.420;2022-10-16T07:58:05;1.87;;;1.77;;
2119;SDS011;1066;52.540;13.420;2022-10-16T08:00:30;2.27;;;2.10;;
2119;SDS011;1066;52.540;13.420;2022-10-16T08:02:58;2.10;;;1.90;;
2119;SDS011;1066;52.540;13.420;2022-10-16T08:05:26;4.43;;;2.30;;
2119;SDS011;1066;52.540;13.420;2022-10-16T08:07:52;2.43;;;1.90;;
2119;SDS011;1066;52.540;13.420;2022-10-16T08:10:18;2.03;;;1.83;;
2119;SDS011;1066;52.540;13.420;2022-10-16T08:12:44;2.00;;;1.90;;
2119;SDS011;1066;52.540;13.420;2022-10-16T08:15:10;2.53;;;2.20;;
2119;SDS011;1066;52.540;13.420;2022-10-16T08:17:35;2.37;;;2.17;;
2119;SDS011;1066;52.540;13.420;2022-10-16T08:20:01;3.03;;;1.90;;
2119;SDS011;1066;52.540;13.420;2022-10-16T08:22:27;2.33;;;2.10;;
2119;SDS011;1066;52.540;13.420;2022-10-16T08:24:52;3.47;;;2.13;;
2119;SDS011;1066;52.540;13.420;2022-10-16T08:27:18;3.10;;;2.07;;
2119;SDS011;1066;52.540;13.420;2022-10-16T08:29:43;3.77;;;3.40;;
2119;SDS011;1066;52.540;13.420;2022-10-16T08:32:09;3.93;;;2.70;;
2119;SDS011;1066;52.540;13.420;2022-10-16T08:34:34;8.00;;;7.40;;
2119;SDS011;1066;52.540;13.420;2022-10-16T08:37:01;4.10;;;3.80;;
2119;SDS011;1066;52.540;13.420;2022-10-16T08:39:30;3.67;;;2.97;;
2119;SDS011;1066;52.540;13.420;2022-10-16T08:42:11;4.00;;;2.33;;
2119;SDS011;1066;52.540;13.420;2022-10-16T08:45:03;2.40;;;2.20;;
2119;SDS011;1066;52.540;13.420;2022-10-16T08:47:49;2.13;;;1.93;;
2119;SDS011;1066;52.540;13.420;2022-10-16T08:50:28;2.40;;;2.13;;
2119;SDS011;1066;52.540;13.420;2022-10-16T08:52:55;2.10;;;1.90;;
2119;SDS011;1066;52.540;13.420;2022-10-16T08:57:57;4.20;;;2.37;;
2119;SDS011;1066;52.540;13.420;2022-10-16T09:00:22;1.97;;;1.77;;
2119;SDS011;1066;52.540;13.420;2022-10-16T09:05:49;2.37;;;2.17;;
2119;SDS011;1066;52.540;13.420;2022-10-16T09:10:57;1.73;;;1.60;;
2119;SDS011;1066;52.540;13.420;2022-10-16T09:13:31;5.40;;;2.17;;
2119;SDS011;1066;52.540;13.420;2022-10-16T09:16:11;2.47;;;2.10;;
2119;SDS011;1066;52.540;13.420;2022-10-16T09:19:21;3.27;;;2.50;;
2119;SDS011;1066;52.540;13.420;2022-10-16T09:21:30;2.00;;;1.77;;
2119;SDS011;1066;52.540;13.420;2022-10-16T09:23:58;3.90;;;3.47;;
2119;SDS011;1066;52.540;13.420;2022-10-16T09:26:25;1.90;;;1.70;;
2119;SDS011;1066;52.540;13.420;2022-10-16T09:28:51;2.20;;;1.80;;
2119;SDS011;1066;52.540;13.420;2022-10-16T09:31:20;4.23;;;2.03;;
2119;SDS011;1066;52.540;13.420;2022-10-16T09:33:47;2.50;;;2.30;;
2119;SDS011;1066;52.540;13.420;2022-10-16T09:36:23;2.80;;;2.27;;
2119;SDS011;1066;52.540;13.420;2022-10-16T09:39:00;3.10;;;2.33;;
2119;SDS011;1066;52.540;13.420;2022-10-16T09:41:27;3.87;;;3.30;;
2119;SDS011;1066;52.540;13.420;2022-10-16T09:43:59;4.43;;;4.00;;
2119;SDS011;1066;52.540;13.420;2022-10-16T09:46:36;3.83;;;3.60;;
2119;SDS011;1066;52.540;13.420;2022-10-16T09:49:22;6.00;;;2.53;;
2119;SDS011;1066;52.540;13.420;2022-10-16T09:52:02;3.10;;;1.80;;
2119;SDS011;1066;52.540;13.420;2022-10-16T09:54:30;2.70;;;2.50;;
2119;SDS011;1066;52.540;13.420;2022-10-16T09:57:10;2.93;;;2.40;;
2119;SDS011;1066;52.540;13.420;2022-10-16T09:59:45;2.30;;;2.10;;
2119;SDS011;1066;52.540;13.420;2022-10-16T10:02:15;6.10;;;1.93;;
2119;SDS011;1066;52.540;13.420;2022-10-16T10:04:45;2.67;;;2.00;;
2119;SDS011;1066;52.540;13.420;2022-10-16T10:07:33;1.63;;;1.40;;
2119;SDS011;1066;52.540;13.420;2022-10-16T10:10:05;1.90;;;1.70;;
2119;SDS011;1066;52.540;13.420;2022-10-16T10:12:31;2.57;;;1.80;;
2119;SDS011;1066;52.540;13.420;2022-10-16T10:15:20;2.97;;;1.87;;
2119;SDS011;1066;52.540;13.420;2022-10-16T10:17:57;2.37;;;1.70;;
2119;SDS011;1066;52.540;13.420;2022-10-16T10:22:57;3.87;;;1.93;;
2119;SDS011;1066;52.540;13.420;2022-10-16T10:25:38;2.77;;;2.00;;
2119;SDS011;1066;52.540;13.420;2022-10-16T10:44:07;1.70;;;1.60;;
2119;SDS011;1066;52.540;13.420;2022-10-16T10:46:45;2.07;;;1.70;;
2119;SDS011;1066;52.540;13.420;2022-10-16T10:54:49;3.10;;;1.60;;
2119;SDS011;1066;52.540;13.420;2022-10-16T10:57:39;1.90;;;1.70;;
2119;SDS011;1066;52.540;13.420;2022-10-16T11:00:28;4.10;;;1.53;;
2119;SDS011;1066;52.540;13.420;2022-10-16T11:05:41;2.03;;;1.63;;
2119;SDS011;1066;52.540;13.420;2022-10-16T11:11:13;1.60;;;1.50;;
2119;SDS011;1066;52.540;13.420;2022-10-16T11:16:13;2.03;;;1.83;;
2119;SDS011;1066;52.540;13.420;2022-10-16T11:21:24;2.53;;;1.40;;
2119;SDS011;1066;52.540;13.420;2022-10-16T11:23:53;2.53;;;1.70;;
2119;SDS011;1066;52.540;13.420;2022-10-16T11:26:30;1.87;;;1.10;;
2119;SDS011;1066;52.540;13.420;2022-10-16T11:28:59;3.20;;;1.87;;
2119;SDS011;1066;52.540;13.420;2022-10-16T11:31:29;1.60;;;1.47;;
2119;SDS011;1066;52.540;13.420;2022-10-16T11:39:29;1.53;;;1.43;;
2119;SDS011;1066;52.540;13.420;2022-10-16T11:41:56;3.90;;;1.80;;
2119;SDS011;1066;52.540;13.420;2022-10-16T11:52:44;1.90;;;1.40;;
2119;SDS011;1066;52.540;13.420;2022-10-16T11:55:21;2.90;;;1.33;;
2119;SDS011;1066;52.540;13.420;2022-10-16T11:57:50;2.70;;;1.40;;
2119;SDS011;1066;52.540;13.420;2022-10-16T12:00:24;3.43;;;1.77;;
2119;SDS011;1066;52.540;13.420;2022-10-16T12:03:12;1.70;;;1.60;;
2119;SDS011;1066;52.540;13.420;2022-10-16T12:08:29;1.80;;;1.70;;
2119;SDS011;1066;52.540;13.420;2022-10-16T12:11:05;1.50;;;1.40;;
2119;SDS011;1066;52.540;13.420;2022-10-16T12:13:46;2.07;;;1.40;;
2119;SDS011;1066;52.540;13.420;2022-10-16T12:18:39;1.30;;;1.20;;
2119;SDS011;1066;52.540;13.420;2022-10-16T12:21:05;1.80;;;1.70;;
2119;SDS011;1066;52.540;13.420;2022-10-16T12:23:45;2.00;;;1.40;;
2119;SDS011;1066;52.540;13.420;2022-10-16T12:26:12;2.60;;;1.70;;
2119;SDS011;1066;52.540;13.420;2022-10-16T12:28:38;5.10;;;1.70;;
2119;SDS011;1066;52.540;13.420;2022-10-16T12:31:07;1.90;;;1.40;;
2119;SDS011;1066;52.540;13.420;2022-10-16T12:33:41;1.60;;;1.40;;
2119;SDS011;1066;52.540;13.420;2022-10-16T12:36:32;2.97;;;1.60;;
2119;SDS011;1066;52.540;13.420;2022-10-16T12:38:58;1.40;;;1.30;;
2119;SDS011;1066;52.540;13.420;2022-10-16T12:41:28;1.27;;;1.17;;
2119;SDS011;1066;52.540;13.420;2022-10-16T12:44:00;1.60;;;1.40;;
2119;SDS011;1066;52.540;13.420;2022-10-16T12:51:38;1.57;;;1.27;;
2119;SDS011;1066;52.540;13.420;2022-10-16T12:56:53;1.63;;;1.30;;
2119;SDS011;1066;52.540;13.420;2022-10-16T13:02:27;1.37;;;1.27;;
2119;SDS011;1066;52.540;13.420;2022-10-16T13:07:48;2.60;;;1.53;;
2119;SDS011;1066;52.540;13.420;2022-10-16T13:10:28;2.30;;;1.57;;
2119;SDS011;1066;52.540;13.420;2022-10-16T13:15:35;1.93;;;1.10;;
2119;SDS011;1066;52.540;13.420;2022-10-16T13:26:41;1.83;;;1.50;;
2119;SDS011;1066;52.540;13.420;2022-10-16T13:29:12;1.30;;;1.20;;
2119;SDS011;1066;52.540;13.420;2022-10-16T13:31:38;2.03;;;1.60;;
2119;SDS011;1066;52.540;13.420;2022-10-16T13:34:04;1.17;;;1.07;;
2119;SDS011;1066;52.540;13.420;2022-10-16T13:36:34;1.47;;;1.10;;
2119;SDS011;1066;52.540;13.420;2022-10-16T13:41:39;4.20;;;1.30;;
2119;SDS011;1066;52.540;13.420;2022-10-16T13:44:05;1.70;;;1.60;;
2119;SDS011;1066;52.540;13.420;2022-10-16T13:46:32;1.93;;;1.07;;
2119;SDS011;1066;52.540;13.420;2022-10-16T13:49:04;1.57;;;1.00;;
2119;SDS011;1066;52.540;13.420;2022-10-16T13:51:35;2.97;;;1.00;;
2119;SDS011;1066;52.540;13.420;2022-10-16T13:54:00;1.60;;;1.37;;
2119;SDS011;1066;52.540;13.420;2022-10-16T13:56:27;1.93;;;1.50;;
2119;SDS011;1066;52.540;13.420;2022-10-16T13:59:04;2.03;;;1.47;;
2119;SDS011;1066;52.540;13.420;2022-10-16T14:01:50;1.40;;;1.10;;
2119;SDS011;1066;52.540;13.420;2022-10-16T14:04:18;1.97;;;1.50;;
2119;SDS011;1066;52.540;13.420;2022-10-16T14:06:45;3.43;;;0.90;;
2119;SDS011;1066;52.540;13.420;2022-10-16T14:09:19;2.30;;;1.20;;
2119;SDS011;1066;52.540;13.420;2022-10-16T14:11:56;1.37;;;1.27;;
2119;SDS011;1066;52.540;13.420;2022-10-16T14:14:23;1.50;;;1.07;;
2119;SDS011;1066;52.540;13.420;2022-10-16T14:16:49;1.97;;;1.53;;
2119;SDS011;1066;52.540;13.420;2022-10-16T14:19:22;1.20;;;1.10;;
2119;SDS011;1066;52.540;13.420;2022-10-16T14:21:50;1.70;;;1.50;;
2119;SDS011;1066;52.540;13.420;2022-10-16T14:24:34;1.20;;;1.10;;
2119;SDS011;1066;52.540;13.420;2022-10-16T14:27:00;1.57;;;1.17;;
2119;SDS011;1066;52.540;13.420;2022-10-16T14:29:26;2.03;;;1.83;;
2119;SDS011;1066;52.540;13.420;2022-10-16T14:31:59;5.30;;;1.37;;
2119;SDS011;1066;52.540;13.420;2022-10-16T14:34:32;2.67;;;1.40;;
2119;SDS011;1066;52.540;13.420;2022-10-16T14:37:06;1.23;;;1.10;;
2119;SDS011;1066;52.540;13.420;2022-10-16T14:39:34;1.00;;;0.90;;
2119;SDS011;1066;52.540;13.420;2022-10-16T14:42:00;1.87;;;1.20;;
2119;SDS011;1066;52.540;13.420;2022-10-16T14:44:30;2.30;;;1.30;;
2119;SDS011;1066;52.540;13.420;2022-10-16T14:46:57;3.80;;;1.60;;
2119;SDS011;1066;52.540;13.420;2022-10-16T14:49:24;3.63;;;1.27;;
2119;SDS011;1066;52.540;13.420;2022-10-16T14:51:50;2.20;;;1.27;;
2119;SDS011;1066;52.540;13.420;2022-10-16T14:54:16;1.37;;;1.27;;
2119;SDS011;1066;52.540;13.420;2022-10-16T14:59:29;2.33;;;1.33;;
2119;SDS011;1066;52.540;13.420;2022-10-16T15:02:25;3.27;;;1.50;;
2119;SDS011;1066;52.540;13.420;2022-10-16T15:04:53;2.90;;;1.60;;
2119;SDS011;1066;52.540;13.420;2022-10-16T15:07:19;2.03;;;1.50;;
2119;SDS011;1066;52.540;13.420;2022-10-16T15:09:44;1.90;;;1.30;;
2119;SDS011;1066;52.540;13.420;2022-10-16T15:12:13;1.70;;;1.43;;
2119;SDS011;1066;52.540;13.420;2022-10-16T15:14:38;2.30;;;1.27;;
2119;SDS011;1066;52.540;13.420;2022-10-16T15:17:03;1.27;;;1.17;;
2119;SDS011;1066;52.540;13.420;2022-10-16T15:19:29;4.13;;;1.50;;
2119;SDS011;1066;52.540;13.420;2022-10-16T15:21:55;1.63;;;1.33;;
2119;SDS011;1066;52.540;13.420;2022-10-16T15:24:20;2.13;;;1.50;;
2119;SDS011;1066;52.540;13.420;2022-10-16T15:26:45;2.57;;;1.83;;
2119;SDS011;1066;52.540;13.420;2022-10-16T15:29:11;1.50;;;1.30;;
2119;SDS011;1066;52.540;13.420;2022-10-16T15:31:37;1.60;;;1.40;;
2119;SDS011;1066;52.540;13.420;2022-10-16T15:34:03;3.00;;;1.47;;
2119;SDS011;1066;52.540;13.420;2022-10-16T15:36:32;1.77;;;1.30;;
2119;SDS011;1066;52.540;13.420;2022-10-16T15:39:01;2.53;;;2.03;;
2119;SDS011;1066;52.540;13.420;2022-10-16T15:41:47;2.20;;;1.73;;
2119;SDS011;1066;52.540;13.420;2022-10-16T15:44:18;2.90;;;1.50;;
2119;SDS011;1066;52.540;13.420;2022-10-16T15:46:44;3.20;;;1.70;;
2119;SDS011;1066;52.540;13.420;2022-10-16T15:49:09;1.90;;;1.40;;
2119;SDS011;1066;52.540;13.420;2022-10-16T15:51:37;4.60;;;1.40;;
2119;SDS011;1066;52.540;13.420;2022-10-16T15:54:04;1.87;;;1.60;;
2119;SDS011;1066;52.540;13.420;2022-10-16T15:56:29;2.23;;;2.03;;
2119;SDS011;1066;52.540;13.420;2022-10-16T15:58:57;3.83;;;2.63;;
2119;SDS011;1066;52.540;13.420;2022-10-16T16:01:23;2.70;;;2.20;;
2119;SDS011;1066;52.540;13.420;2022-10-16T16:03:51;2.73;;;1.90;;
2119;SDS011;1066;52.540;13.420;2022-10-16T16:06:18;3.17;;;2.37;;
2119;SDS011;1066;52.540;13.420;2022-10-16T16:08:43;3.70;;;1.87;;
2119;SDS011;1066;52.540;13.420;2022-10-16T16:11:09;2.37;;;2.17;;
2119;SDS011;1066;52.540;13.420;2022-10-16T16:13:37;4.23;;;1.67;;
2119;SDS011;1066;52.540;13.420;2022-10-16T16:16:09;2.80;;;1.60;;
2119;SDS011;1066;52.540;13.420;2022-10-16T16:18:36;7.27;;;2.73;;
2119;SDS011;1066;52.540;13.420;2022-10-16T16:21:02;5.60;;;2.00;;
2119;SDS011;1066;52.540;13.420;2022-10-16T16:23:28;2.73;;;2.30;;
2119;SDS011;1066;52.540;13.420;2022-10-16T16:26:03;2.27;;;2.03;;
2119;SDS011;1066;52.540;13.420;2022-10-16T16:28:35;2.10;;;1.90;;
2119;SDS011;1066;52.540;13.420;2022-10-16T16:31:00;5.00;;;2.30;;
2119;SDS011;1066;52.540;13.420;2022-10-16T16:33:26;2.87;;;2.10;;
2119;SDS011;1066;52.540;13.420;2022-10-16T16:35:55;3.30;;;2.20;;
2119;SDS011;1066;52.540;13.420;2022-10-16T16:38:24;2.50;;;2.30;;
2119;SDS011;1066;52.540;13.420;2022-10-16T16:40:50;6.03;;;2.30;;
2119;SDS011;1066;52.540;13.420;2022-10-16T16:43:16;4.27;;;2.93;;
2119;SDS011;1066;52.540;13.420;2022-10-16T16:45:42;5.83;;;2.80;;
2119;SDS011;1066;52.540;13.420;2022-10-16T16:48:07;4.87;;;3.10;;
2119;SDS011;1066;52.540;13.420;2022-10-16T16:50:36;3.83;;;3.20;;